sensor_id;sensor_type;location;lat;lon;timestamp;pressure;altitude;pressure_sealevel;temperature
71564;BMP180;59391;52.504;13.438;2023-05-07T00:01:45;101819.00;;;13.90
71564;BMP180;59391;52.504;13.438;2023-05-07T00:04:11;101808.00;;;14.00
71564;BMP180;59391;52.504;13.438;2023-05-07T00:06:36;101814.00;;;14.00
71564;BMP180;59391;52.504;13.438;2023-05-07T00:09:02;101813.00;;;14.00
71564;BMP180;59391;52.504;13.438;2023-05-07T00:11:29;101820.00;;;14.00
71564;BMP180;59391;52.504;13.438;2023-05-07T00:13:55;101811.00;;;14.00
71564;BMP180;59391;52.504;13.438;2023-05-07T00:16:21;101818.00;;;14.00
71564;BMP180;59391;52.504;13.438;2023-05-07T00:18:46;101809.00;;;14.00
71564;BMP180;59391;52.504;13.438;2023-05-07T00:21:12;101797.00;;;13.90
71564;BMP180;59391;52.504;13.438;2023-05-07T00:23:37;101809.00;;;13.90
71564;BMP180;59391;52.504;13.438;2023-05-07T00:26:04;101817.00;;;13.90
71564;BMP180;59391;52.504;13.438;2023-05-07T00:28:29;101811.00;;;13.90
71564;BMP180;59391;52.504;13.438;2023-05-07T00:30:55;101819.00;;;13.90
71564;BMP180;59391;52.504;13.438;2023-05-07T00:33:21;101806.00;;;13.90
71564;BMP180;59391;52.504;13.438;2023-05-07T00:35:47;101816.00;;;13.90
71564;BMP180;59391;52.504;13.438;2023-05-07T00:38:13;101806.00;;;13.90
71564;BMP180;59391;52.504;13.438;2023-05-07T00:40:39;101810.00;;;13.90
71564;BMP180;59391;52.504;13.438;2023-05-07T00:43:04;101819.00;;;13.90
71564;BMP180;59391;52.504;13.438;2023-05-07T00:45:30;101815.00;;;13.90
71564;BMP180;59391;52.504;13.438;2023-05-07T00:47:59;101806.00;;;13.80
71564;BMP180;59391;52.504;13.438;2023-05-07T00:50:26;101813.00;;;13.80
71564;BMP180;59391;52.504;13.438;2023-05-07T00:52:53;101816.00;;;13.80
71564;BMP180;59391;52.504;13.438;2023-05-07T00:55:19;101804.00;;;13.80
71564;BMP180;59391;52.504;13.438;2023-05-07T00:57:45;101814.00;;;13.80
71564;BMP180;59391;52.504;13.438;2023-05-07T01:00:12;101819.00;;;13.80
71564;BMP180;59391;52.504;13.438;2023-05-07T01:02:42;101801.00;;;13.80
71564;BMP180;59391;52.504;13.438;2023-05-07T01:05:11;101814.00;;;13.80
71564;BMP180;59391;52.504;13.438;2023-05-07T01:07:40;101815.00;;;13.80
71564;BMP180;59391;52.504;13.438;2023-05-07T01:10:07;101820.00;;;13.80
71564;BMP180;59391;52.504;13.438;2023-05-07T01:12:35;101810.00;;;13.80
71564;BMP180;59391;52.504;13.438;2023-05-07T01:15:03;101806.00;;;13.80
71564;BMP180;59391;52.504;13.438;2023-05-07T01:17:38;101816.00;;;13.80
71564;BMP180;59391;52.504;13.438;2023-05-07T01:20:06;101805.00;;;13.80
71564;BMP180;59391;52.504;13.438;2023-05-07T01:22:35;101815.00;;;13.80
71564;BMP180;59391;52.504;13.438;2023-05-07T01:25:06;101819.00;;;13.80
71564;BMP180;59391;52.504;13.438;2023-05-07T01:27:32;101819.00;;;13.80
71564;BMP180;59391;52.504;13.438;2023-05-07T01:30:06;101818.00;;;13.80
71564;BMP180;59391;52.504;13.438;2023-05-07T01:35:23;101821.00;;;13.80
71564;BMP180;59391;52.504;13.438;2023-05-07T01:37:50;101821.00;;;13.80
71564;BMP180;59391;52.504;13.438;2023-05-07T01:40:16;101821.00;;;13.80
71564;BMP180;59391;52.504;13.438;2023-05-07T01:42:43;101819.00;;;13.80
71564;BMP180;59391;52.504;13.438;2023-05-07T01:45:09;101814.00;;;13.80
71564;BMP180;59391;52.504;13.438;2023-05-07T01:47:37;101825.00;;;13.80
71564;BMP180;59391;52.504;13.438;2023-05-07T01:50:07;101822.00;;;13.80
71564;BMP180;59391;52.504;13.438;2023-05-07T01:52:39;101829.00;;;13.80
71564;BMP180;59391;52.504;13.438;2023-05-07T01:55:06;101821.00;;;13.80
71564;BMP180;59391;52.504;13.438;2023-05-07T01:57:32;101815.00;;;13.80
71564;BMP180;59391;52.504;13.438;2023-05-07T01:59:57;101820.00;;;13.80
71564;BMP180;59391;52.504;13.438;2023-05-07T02:02:23;101819.00;;;13.80
71564;BMP180;59391;52.504;13.438;2023-05-07T02:04:48;101819.00;;;13.80
71564;BMP180;59391;52.504;13.438;2023-05-07T02:07:14;101824.00;;;13.80
71564;BMP180;59391;52.504;13.438;2023-05-07T02:09:40;101823.00;;;13.80
71564;BMP180;59391;52.504;13.438;2023-05-07T02:12:05;101826.00;;;13.70
71564;BMP180;59391;52.504;13.438;2023-05-07T02:14:31;101830.00;;;13.70
71564;BMP180;59391;52.504;13.438;2023-05-07T02:16:56;101823.00;;;13.70
71564;BMP180;59391;52.504;13.438;2023-05-07T02:19:22;101834.00;;;13.70
71564;BMP180;59391;52.504;13.438;2023-05-07T02:21:47;101831.00;;;13.70
71564;BMP180;59391;52.504;13.438;2023-05-07T02:24:13;101839.00;;;13.70
71564;BMP180;59391;52.504;13.438;2023-05-07T02:26:42;101841.00;;;13.70
71564;BMP180;59391;52.504;13.438;2023-05-07T02:29:08;101827.00;;;13.70
71564;BMP180;59391;52.504;13.438;2023-05-07T02:31:33;101835.00;;;13.70
71564;BMP180;59391;52.504;13.438;2023-05-07T02:34:01;101843.00;;;13.70
71564;BMP180;59391;52.504;13.438;2023-05-07T02:36:27;101846.00;;;13.80
71564;BMP180;59391;52.504;13.438;2023-05-07T02:38:53;101847.00;;;13.80
71564;BMP180;59391;52.504;13.438;2023-05-07T02:41:19;101833.00;;;13.80
71564;BMP180;59391;52.504;13.438;2023-05-07T02:43:45;101838.00;;;13.80
71564;BMP180;59391;52.504;13.438;2023-05-07T02:46:11;101843.00;;;13.80
71564;BMP180;59391;52.504;13.438;2023-05-07T02:48:36;101836.00;;;13.80
71564;BMP180;59391;52.504;13.438;2023-05-07T02:51:03;101838.00;;;13.80
71564;BMP180;59391;52.504;13.438;2023-05-07T02:53:29;101841.00;;;13.80
71564;BMP180;59391;52.504;13.438;2023-05-07T02:56:00;101840.00;;;13.80
71564;BMP180;59391;52.504;13.438;2023-05-07T02:58:26;101853.00;;;13.80
71564;BMP180;59391;52.504;13.438;2023-05-07T03:00:53;101848.00;;;13.80
71564;BMP180;59391;52.504;13.438;2023-05-07T03:03:20;101859.00;;;13.90
71564;BMP180;59391;52.504;13.438;2023-05-07T03:05:46;101860.00;;;13.90
71564;BMP180;59391;52.504;13.438;2023-05-07T03:08:12;101856.00;;;13.90
71564;BMP180;59391;52.504;13.438;2023-05-07T03:10:38;101863.00;;;13.90
71564;BMP180;59391;52.504;13.438;2023-05-07T03:13:04;101861.00;;;13.90
71564;BMP180;59391;52.504;13.438;2023-05-07T03:15:30;101865.00;;;13.90
71564;BMP180;59391;52.504;13.438;2023-05-07T03:17:56;101869.00;;;13.90
71564;BMP180;59391;52.504;13.438;2023-05-07T03:20:22;101862.00;;;13.90
71564;BMP180;59391;52.504;13.438;2023-05-07T03:22:48;101858.00;;;13.90
71564;BMP180;59391;52.504;13.438;2023-05-07T03:25:13;101871.00;;;13.90
71564;BMP180;59391;52.504;13.438;2023-05-07T03:27:40;101861.00;;;13.90
71564;BMP180;59391;52.504;13.438;2023-05-07T03:30:08;101856.00;;;13.90
71564;BMP180;59391;52.504;13.438;2023-05-07T03:32:34;101863.00;;;13.90
71564;BMP180;59391;52.504;13.438;2023-05-07T03:35:01;101870.00;;;13.90
71564;BMP180;59391;52.504;13.438;2023-05-07T03:37:26;101871.00;;;13.90
71564;BMP180;59391;52.504;13.438;2023-05-07T03:39:52;101869.00;;;14.00
71564;BMP180;59391;52.504;13.438;2023-05-07T03:42:17;101873.00;;;14.00
71564;BMP180;59391;52.504;13.438;2023-05-07T03:44:43;101872.00;;;14.00
71564;BMP180;59391;52.504;13.438;2023-05-07T03:47:09;101879.00;;;13.90
71564;BMP180;59391;52.504;13.438;2023-05-07T03:49:35;101874.00;;;13.90
71564;BMP180;59391;52.504;13.438;2023-05-07T03:52:01;101887.00;;;13.90
71564;BMP180;59391;52.504;13.438;2023-05-07T03:54:26;101880.00;;;13.90
71564;BMP180;59391;52.504;13.438;2023-05-07T03:56:52;101897.00;;;13.80
71564;BMP180;59391;52.504;13.438;2023-05-07T03:59:18;101892.00;;;13.80
71564;BMP180;59391;52.504;13.438;2023-05-07T04:01:43;101892.00;;;13.80
71564;BMP180;59391;52.504;13.438;2023-05-07T04:04:09;101887.00;;;13.80
71564;BMP180;59391;52.504;13.438;2023-05-07T04:06:34;101891.00;;;13.80
71564;BMP180;59391;52.504;13.438;2023-05-07T04:09:00;101885.00;;;13.80
71564;BMP180;59391;52.504;13.438;2023-05-07T04:11:26;101881.00;;;13.80
71564;BMP180;59391;52.504;13.438;2023-05-07T04:13:51;101884.00;;;13.80
71564;BMP180;59391;52.504;13.438;2023-05-07T04:16:17;101888.00;;;13.80
71564;BMP180;59391;52.504;13.438;2023-05-07T04:18:43;101887.00;;;13.80
71564;BMP180;59391;52.504;13.438;2023-05-07T04:21:19;101892.00;;;13.80
71564;BMP180;59391;52.504;13.438;2023-05-07T04:23:49;101894.00;;;13.80
71564;BMP180;59391;52.504;13.438;2023-05-07T04:26:15;101891.00;;;13.80
71564;BMP180;59391;52.504;13.438;2023-05-07T04:28:41;101897.00;;;13.80
71564;BMP180;59391;52.504;13.438;2023-05-07T04:31:07;101895.00;;;13.90
71564;BMP180;59391;52.504;13.438;2023-05-07T04:33:33;101900.00;;;13.90
71564;BMP180;59391;52.504;13.438;2023-05-07T04:36:02;101896.00;;;13.90
71564;BMP180;59391;52.504;13.438;2023-05-07T04:38:30;101889.00;;;13.90
71564;BMP180;59391;52.504;13.438;2023-05-07T04:40:58;101903.00;;;13.90
71564;BMP180;59391;52.504;13.438;2023-05-07T04:43:27;101900.00;;;14.00
71564;BMP180;59391;52.504;13.438;2023-05-07T04:45:53;101904.00;;;14.00
71564;BMP180;59391;52.504;13.438;2023-05-07T04:48:18;101911.00;;;14.00
71564;BMP180;59391;52.504;13.438;2023-05-07T04:50:49;101910.00;;;14.00
71564;BMP180;59391;52.504;13.438;2023-05-07T04:53:19;101916.00;;;14.00
71564;BMP180;59391;52.504;13.438;2023-05-07T04:55:45;101915.00;;;14.00
71564;BMP180;59391;52.504;13.438;2023-05-07T04:58:12;101914.00;;;14.10
71564;BMP180;59391;52.504;13.438;2023-05-07T05:00:38;101921.00;;;14.00
71564;BMP180;59391;52.504;13.438;2023-05-07T05:03:08;101920.00;;;14.10
71564;BMP180;59391;52.504;13.438;2023-05-07T05:05:34;101922.00;;;14.10
71564;BMP180;59391;52.504;13.438;2023-05-07T05:07:59;101931.00;;;14.10
71564;BMP180;59391;52.504;13.438;2023-05-07T05:10:25;101920.00;;;14.10
71564;BMP180;59391;52.504;13.438;2023-05-07T05:12:51;101925.00;;;14.10
71564;BMP180;59391;52.504;13.438;2023-05-07T05:15:17;101925.00;;;14.10
71564;BMP180;59391;52.504;13.438;2023-05-07T05:17:42;101925.00;;;14.10
71564;BMP180;59391;52.504;13.438;2023-05-07T05:20:08;101933.00;;;14.10
71564;BMP180;59391;52.504;13.438;2023-05-07T05:22:36;101930.00;;;14.10
71564;BMP180;59391;52.504;13.438;2023-05-07T05:25:01;101937.00;;;14.10
71564;BMP180;59391;52.504;13.438;2023-05-07T05:27:27;101943.00;;;14.10
71564;BMP180;59391;52.504;13.438;2023-05-07T05:29:53;101934.00;;;14.10
71564;BMP180;59391;52.504;13.438;2023-05-07T05:32:19;101928.00;;;14.10
71564;BMP180;59391;52.504;13.438;2023-05-07T05:34:44;101931.00;;;14.10
71564;BMP180;59391;52.504;13.438;2023-05-07T05:37:10;101932.00;;;14.10
71564;BMP180;59391;52.504;13.438;2023-05-07T05:39:36;101928.00;;;14.10
71564;BMP180;59391;52.504;13.438;2023-05-07T05:42:02;101943.00;;;14.10
71564;BMP180;59391;52.504;13.438;2023-05-07T05:44:28;101928.00;;;14.10
71564;BMP180;59391;52.504;13.438;2023-05-07T05:46:53;101924.00;;;14.10
71564;BMP180;59391;52.504;13.438;2023-05-07T05:49:23;101945.00;;;14.10
71564;BMP180;59391;52.504;13.438;2023-05-07T05:51:48;101946.00;;;14.10
71564;BMP180;59391;52.504;13.438;2023-05-07T05:54:14;101944.00;;;14.10
71564;BMP180;59391;52.504;13.438;2023-05-07T05:56:41;101946.00;;;14.10
71564;BMP180;59391;52.504;13.438;2023-05-07T05:59:07;101954.00;;;14.20
71564;BMP180;59391;52.504;13.438;2023-05-07T06:01:33;101946.00;;;14.20
71564;BMP180;59391;52.504;13.438;2023-05-07T06:03:58;101951.00;;;14.30
71564;BMP180;59391;52.504;13.438;2023-05-07T06:06:24;101948.00;;;14.30
71564;BMP180;59391;52.504;13.438;2023-05-07T06:08:50;101955.00;;;14.30
71564;BMP180;59391;52.504;13.438;2023-05-07T06:11:15;101955.00;;;14.40
71564;BMP180;59391;52.504;13.438;2023-05-07T06:13:41;101963.00;;;14.50
71564;BMP180;59391;52.504;13.438;2023-05-07T06:16:07;101959.00;;;14.60
71564;BMP180;59391;52.504;13.438;2023-05-07T06:18:32;101960.00;;;14.70
71564;BMP180;59391;52.504;13.438;2023-05-07T06:20:58;101969.00;;;14.70
71564;BMP180;59391;52.504;13.438;2023-05-07T06:23:23;101957.00;;;14.80
71564;BMP180;59391;52.504;13.438;2023-05-07T06:25:50;101964.00;;;14.70
71564;BMP180;59391;52.504;13.438;2023-05-07T06:28:17;101963.00;;;14.80
71564;BMP180;59391;52.504;13.438;2023-05-07T06:30:42;101961.00;;;14.80
71564;BMP180;59391;52.504;13.438;2023-05-07T06:33:08;101973.00;;;14.80
71564;BMP180;59391;52.504;13.438;2023-05-07T06:35:34;101975.00;;;14.80
71564;BMP180;59391;52.504;13.438;2023-05-07T06:38:00;101973.00;;;14.80
71564;BMP180;59391;52.504;13.438;2023-05-07T06:40:26;101984.00;;;14.90
71564;BMP180;59391;52.504;13.438;2023-05-07T06:42:52;101983.00;;;14.90
71564;BMP180;59391;52.504;13.438;2023-05-07T06:45:18;101991.00;;;14.80
71564;BMP180;59391;52.504;13.438;2023-05-07T06:47:44;101987.00;;;14.80
71564;BMP180;59391;52.504;13.438;2023-05-07T06:50:10;101997.00;;;14.90
71564;BMP180;59391;52.504;13.438;2023-05-07T06:52:35;101994.00;;;14.90
71564;BMP180;59391;52.504;13.438;2023-05-07T06:55:01;101997.00;;;15.00
71564;BMP180;59391;52.504;13.438;2023-05-07T06:57:27;101995.00;;;15.10
71564;BMP180;59391;52.504;13.438;2023-05-07T06:59:53;101991.00;;;15.20
71564;BMP180;59391;52.504;13.438;2023-05-07T07:02:24;101997.00;;;15.20
71564;BMP180;59391;52.504;13.438;2023-05-07T07:04:52;101991.00;;;15.20
71564;BMP180;59391;52.504;13.438;2023-05-07T07:07:18;101992.00;;;15.30
71564;BMP180;59391;52.504;13.438;2023-05-07T07:09:43;102006.00;;;15.30
71564;BMP180;59391;52.504;13.438;2023-05-07T07:12:09;101993.00;;;15.40
71564;BMP180;59391;52.504;13.438;2023-05-07T07:14:34;101987.00;;;15.40
71564;BMP180;59391;52.504;13.438;2023-05-07T07:17:00;101993.00;;;15.40
71564;BMP180;59391;52.504;13.438;2023-05-07T07:19:26;102000.00;;;15.50
71564;BMP180;59391;52.504;13.438;2023-05-07T07:21:51;101997.00;;;15.50
71564;BMP180;59391;52.504;13.438;2023-05-07T07:24:17;102001.00;;;15.50
71564;BMP180;59391;52.504;13.438;2023-05-07T07:26:46;102003.00;;;15.60
71564;BMP180;59391;52.504;13.438;2023-05-07T07:29:12;101998.00;;;15.70
71564;BMP180;59391;52.504;13.438;2023-05-07T07:31:38;102002.00;;;15.80
71564;BMP180;59391;52.504;13.438;2023-05-07T07:34:04;101994.00;;;15.90
71564;BMP180;59391;52.504;13.438;2023-05-07T07:36:30;101993.00;;;16.00
71564;BMP180;59391;52.504;13.438;2023-05-07T07:38:55;101996.00;;;16.10
71564;BMP180;59391;52.504;13.438;2023-05-07T07:41:21;101996.00;;;16.10
71564;BMP180;59391;52.504;13.438;2023-05-07T07:43:47;101994.00;;;16.20
71564;BMP180;59391;52.504;13.438;2023-05-07T07:46:12;101983.00;;;16.30
71564;BMP180;59391;52.504;13.438;2023-05-07T07:48:38;101981.00;;;16.30
71564;BMP180;59391;52.504;13.438;2023-05-07T07:51:04;101985.00;;;16.40
71564;BMP180;59391;52.504;13.438;2023-05-07T07:53:30;101989.00;;;16.40
71564;BMP180;59391;52.504;13.438;2023-05-07T07:55:56;101987.00;;;16.50
71564;BMP180;59391;52.504;13.438;2023-05-07T07:58:21;101979.00;;;16.50
71564;BMP180;59391;52.504;13.438;2023-05-07T08:00:48;101989.00;;;16.50
71564;BMP180;59391;52.504;13.438;2023-05-07T08:03:14;101998.00;;;16.50
71564;BMP180;59391;52.504;13.438;2023-05-07T08:05:42;101997.00;;;16.50
71564;BMP180;59391;52.504;13.438;2023-05-07T08:08:08;101994.00;;;16.60
71564;BMP180;59391;52.504;13.438;2023-05-07T08:10:33;102000.00;;;16.70
71564;BMP180;59391;52.504;13.438;2023-05-07T08:13:00;101994.00;;;16.70
71564;BMP180;59391;52.504;13.438;2023-05-07T08:15:27;101999.00;;;16.80
71564;BMP180;59391;52.504;13.438;2023-05-07T08:17:52;101992.00;;;16.90
71564;BMP180;59391;52.504;13.438;2023-05-07T08:20:18;101988.00;;;16.90
71564;BMP180;59391;52.504;13.438;2023-05-07T08:22:44;101986.00;;;17.00
71564;BMP180;59391;52.504;13.438;2023-05-07T08:25:09;101977.00;;;17.00
71564;BMP180;59391;52.504;13.438;2023-05-07T08:27:35;101984.00;;;17.10
71564;BMP180;59391;52.504;13.438;2023-05-07T08:30:01;101988.00;;;17.20
71564;BMP180;59391;52.504;13.438;2023-05-07T08:32:27;101997.00;;;17.50
71564;BMP180;59391;52.504;13.438;2023-05-07T08:34:53;101993.00;;;18.20
71564;BMP180;59391;52.504;13.438;2023-05-07T08:37:18;101999.00;;;19.10
71564;BMP180;59391;52.504;13.438;2023-05-07T08:39:44;101994.00;;;19.80
71564;BMP180;59391;52.504;13.438;2023-05-07T08:42:11;102004.00;;;20.30
71564;BMP180;59391;52.504;13.438;2023-05-07T08:44:38;102008.00;;;20.70
71564;BMP180;59391;52.504;13.438;2023-05-07T08:47:07;102001.00;;;20.90
71564;BMP180;59391;52.504;13.438;2023-05-07T08:49:34;101990.00;;;21.20
71564;BMP180;59391;52.504;13.438;2023-05-07T08:52:01;101991.00;;;21.30
71564;BMP180;59391;52.504;13.438;2023-05-07T08:54:27;101998.00;;;21.70
71564;BMP180;59391;52.504;13.438;2023-05-07T08:56:54;102003.00;;;22.10
71564;BMP180;59391;52.504;13.438;2023-05-07T08:59:20;102011.00;;;22.20
71564;BMP180;59391;52.504;13.438;2023-05-07T09:01:46;102006.00;;;22.10
71564;BMP180;59391;52.504;13.438;2023-05-07T09:04:12;102012.00;;;22.40
71564;BMP180;59391;52.504;13.438;2023-05-07T09:06:38;102004.00;;;22.20
71564;BMP180;59391;52.504;13.438;2023-05-07T09:09:07;102013.00;;;22.00
71564;BMP180;59391;52.504;13.438;2023-05-07T09:11:33;102009.00;;;22.40
71564;BMP180;59391;52.504;13.438;2023-05-07T09:13:59;102010.00;;;22.50
71564;BMP180;59391;52.504;13.438;2023-05-07T09:16:30;102023.00;;;22.40
71564;BMP180;59391;52.504;13.438;2023-05-07T09:18:59;102017.00;;;22.20
71564;BMP180;59391;52.504;13.438;2023-05-07T09:21:25;102017.00;;;22.50
71564;BMP180;59391;52.504;13.438;2023-05-07T09:23:53;102021.00;;;23.00
71564;BMP180;59391;52.504;13.438;2023-05-07T09:26:23;102022.00;;;23.10
71564;BMP180;59391;52.504;13.438;2023-05-07T09:28:50;102029.00;;;23.20
71564;BMP180;59391;52.504;13.438;2023-05-07T09:31:15;102026.00;;;23.30
71564;BMP180;59391;52.504;13.438;2023-05-07T09:33:41;102027.00;;;23.20
71564;BMP180;59391;52.504;13.438;2023-05-07T09:36:09;102020.00;;;22.90
71564;BMP180;59391;52.504;13.438;2023-05-07T09:38:37;102010.00;;;22.50
71564;BMP180;59391;52.504;13.438;2023-05-07T09:41:13;102015.00;;;22.30
71564;BMP180;59391;52.504;13.438;2023-05-07T09:43:40;102025.00;;;22.10
71564;BMP180;59391;52.504;13.438;2023-05-07T09:46:15;102025.00;;;22.00
71564;BMP180;59391;52.504;13.438;2023-05-07T09:48:43;102032.00;;;21.80
71564;BMP180;59391;52.504;13.438;2023-05-07T09:51:23;102025.00;;;21.60
71564;BMP180;59391;52.504;13.438;2023-05-07T09:53:52;102024.00;;;21.40
71564;BMP180;59391;52.504;13.438;2023-05-07T09:56:19;102022.00;;;21.30
71564;BMP180;59391;52.504;13.438;2023-05-07T09:58:46;102026.00;;;21.50
71564;BMP180;59391;52.504;13.438;2023-05-07T10:01:12;102024.00;;;21.80
71564;BMP180;59391;52.504;13.438;2023-05-07T10:03:41;102037.00;;;22.40
71564;BMP180;59391;52.504;13.438;2023-05-07T10:06:09;102033.00;;;22.40
71564;BMP180;59391;52.504;13.438;2023-05-07T10:08:36;102029.00;;;22.00
71564;BMP180;59391;52.504;13.438;2023-05-07T10:11:04;102026.00;;;21.80
71564;BMP180;59391;52.504;13.438;2023-05-07T10:13:32;102025.00;;;22.20
71564;BMP180;59391;52.504;13.438;2023-05-07T10:16:00;102018.00;;;22.10
71564;BMP180;59391;52.504;13.438;2023-05-07T10:18:26;102021.00;;;22.60
71564;BMP180;59391;52.504;13.438;2023-05-07T10:21:08;102023.00;;;23.50
71564;BMP180;59391;52.504;13.438;2023-05-07T10:23:38;102026.00;;;23.70
71564;BMP180;59391;52.504;13.438;2023-05-07T10:26:06;102027.00;;;23.50
71564;BMP180;59391;52.504;13.438;2023-05-07T10:28:39;102028.00;;;23.50
71564;BMP180;59391;52.504;13.438;2023-05-07T10:31:27;102035.00;;;23.60
71564;BMP180;59391;52.504;13.438;2023-05-07T10:33:57;102029.00;;;23.60
71564;BMP180;59391;52.504;13.438;2023-05-07T10:36:25;102032.00;;;23.40
71564;BMP180;59391;52.504;13.438;2023-05-07T10:38:51;102026.00;;;23.30
71564;BMP180;59391;52.504;13.438;2023-05-07T10:41:17;102021.00;;;23.10
71564;BMP180;59391;52.504;13.438;2023-05-07T10:43:45;102028.00;;;22.80
71564;BMP180;59391;52.504;13.438;2023-05-07T10:46:18;102032.00;;;22.60
71564;BMP180;59391;52.504;13.438;2023-05-07T10:51:30;102035.00;;;23.20
71564;BMP180;59391;52.504;13.438;2023-05-07T10:56:39;102039.00;;;23.90
71564;BMP180;59391;52.504;13.438;2023-05-07T10:59:31;102031.00;;;23.70
71564;BMP180;59391;52.504;13.438;2023-05-07T11:02:00;102034.00;;;23.40
71564;BMP180;59391;52.504;13.438;2023-05-07T11:04:29;102034.00;;;23.20
71564;BMP180;59391;52.504;13.438;2023-05-07T11:15:13;102036.00;;;24.20
71564;BMP180;59391;52.504;13.438;2023-05-07T11:17:56;102026.00;;;24.40
71564;BMP180;59391;52.504;13.438;2023-05-07T11:20:54;102025.00;;;24.10
71564;BMP180;59391;52.504;13.438;2023-05-07T11:26:07;102025.00;;;23.50
71564;BMP180;59391;52.504;13.438;2023-05-07T11:28:43;102022.00;;;23.20
71564;BMP180;59391;52.504;13.438;2023-05-07T11:31:10;102015.00;;;23.00
71564;BMP180;59391;52.504;13.438;2023-05-07T11:33:38;102021.00;;;23.20
71564;BMP180;59391;52.504;13.438;2023-05-07T11:36:05;102017.00;;;23.50
71564;BMP180;59391;52.504;13.438;2023-05-07T11:38:35;102016.00;;;23.70
71564;BMP180;59391;52.504;13.438;2023-05-07T11:41:00;102021.00;;;23.90
71564;BMP180;59391;52.504;13.438;2023-05-07T11:43:27;102014.00;;;24.10
71564;BMP180;59391;52.504;13.438;2023-05-07T11:45:53;102010.00;;;24.10
71564;BMP180;59391;52.504;13.438;2023-05-07T11:48:21;102017.00;;;24.00
71564;BMP180;59391;52.504;13.438;2023-05-07T11:53:35;102002.00;;;23.80
71564;BMP180;59391;52.504;13.438;2023-05-07T11:56:11;102013.00;;;23.50
71564;BMP180;59391;52.504;13.438;2023-05-07T11:58:38;102023.00;;;23.30
71564;BMP180;59391;52.504;13.438;2023-05-07T12:01:04;102021.00;;;23.10
71564;BMP180;59391;52.504;13.438;2023-05-07T12:03:29;102017.00;;;22.80
71564;BMP180;59391;52.504;13.438;2023-05-07T12:05:55;102019.00;;;22.70
71564;BMP180;59391;52.504;13.438;2023-05-07T12:08:21;102013.00;;;22.90
71564;BMP180;59391;52.504;13.438;2023-05-07T12:10:49;102011.00;;;23.30
71564;BMP180;59391;52.504;13.438;2023-05-07T12:13:23;102011.00;;;23.60
71564;BMP180;59391;52.504;13.438;2023-05-07T12:15:54;102005.00;;;23.80
71564;BMP180;59391;52.504;13.438;2023-05-07T12:18:21;102010.00;;;23.90
71564;BMP180;59391;52.504;13.438;2023-05-07T12:20:48;102005.00;;;24.10
71564;BMP180;59391;52.504;13.438;2023-05-07T12:23:15;102022.00;;;24.40
71564;BMP180;59391;52.504;13.438;2023-05-07T12:25:43;102018.00;;;24.80
71564;BMP180;59391;52.504;13.438;2023-05-07T12:28:14;102021.00;;;25.00
71564;BMP180;59391;52.504;13.438;2023-05-07T12:30:46;102010.00;;;25.00
71564;BMP180;59391;52.504;13.438;2023-05-07T12:33:17;102007.00;;;24.70
71564;BMP180;59391;52.504;13.438;2023-05-07T12:35:43;102013.00;;;24.50
71564;BMP180;59391;52.504;13.438;2023-05-07T12:38:12;102017.00;;;24.20
71564;BMP180;59391;52.504;13.438;2023-05-07T12:40:40;102017.00;;;23.80
71564;BMP180;59391;52.504;13.438;2023-05-07T12:43:07;102009.00;;;23.50
71564;BMP180;59391;52.504;13.438;2023-05-07T12:45:41;102006.00;;;23.50
71564;BMP180;59391;52.504;13.438;2023-05-07T12:48:09;102016.00;;;23.40
71564;BMP180;59391;52.504;13.438;2023-05-07T12:50:35;102017.00;;;23.30
71564;BMP180;59391;52.504;13.438;2023-05-07T12:53:04;102020.00;;;23.20
71564;BMP180;59391;52.504;13.438;2023-05-07T12:55:49;102013.00;;;23.20
71564;BMP180;59391;52.504;13.438;2023-05-07T12:58:41;102014.00;;;23.30
71564;BMP180;59391;52.504;13.438;2023-05-07T13:01:07;102016.00;;;23.30
71564;BMP180;59391;52.504;13.438;2023-05-07T13:03:37;102023.00;;;23.20
71564;BMP180;59391;52.504;13.438;2023-05-07T13:06:06;102014.00;;;23.10
71564;BMP180;59391;52.504;13.438;2023-05-07T13:08:35;102017.00;;;23.10
71564;BMP180;59391;52.504;13.438;2023-05-07T13:11:12;102018.00;;;23.30
71564;BMP180;59391;52.504;13.438;2023-05-07T13:13:40;102015.00;;;23.50
71564;BMP180;59391;52.504;13.438;2023-05-07T13:16:09;102016.00;;;23.60
71564;BMP180;59391;52.504;13.438;2023-05-07T13:18:36;102012.00;;;23.60
71564;BMP180;59391;52.504;13.438;2023-05-07T13:21:02;102016.00;;;23.70
71564;BMP180;59391;52.504;13.438;2023-05-07T13:23:28;102013.00;;;23.80
71564;BMP180;59391;52.504;13.438;2023-05-07T13:25:54;102008.00;;;23.80
71564;BMP180;59391;52.504;13.438;2023-05-07T13:28:22;102011.00;;;23.70
71564;BMP180;59391;52.504;13.438;2023-05-07T13:30:48;102012.00;;;23.70
71564;BMP180;59391;52.504;13.438;2023-05-07T13:33:14;102018.00;;;23.70
71564;BMP180;59391;52.504;13.438;2023-05-07T13:35:41;102013.00;;;23.70
71564;BMP180;59391;52.504;13.438;2023-05-07T13:38:07;102013.00;;;23.70
71564;BMP180;59391;52.504;13.438;2023-05-07T13:40:33;102013.00;;;23.70
71564;BMP180;59391;52.504;13.438;2023-05-07T13:43:00;102016.00;;;23.70
71564;BMP180;59391;52.504;13.438;2023-05-07T13:45:28;102009.00;;;23.60
71564;BMP180;59391;52.504;13.438;2023-05-07T13:47:56;102014.00;;;23.40
71564;BMP180;59391;52.504;13.438;2023-05-07T13:50:22;102013.00;;;23.30
71564;BMP180;59391;52.504;13.438;2023-05-07T13:52:48;102025.00;;;23.30
71564;BMP180;59391;52.504;13.438;2023-05-07T13:55:21;102021.00;;;23.20
71564;BMP180;59391;52.504;13.438;2023-05-07T13:57:47;102011.00;;;23.30
71564;BMP180;59391;52.504;13.438;2023-05-07T14:00:14;102016.00;;;23.40
71564;BMP180;59391;52.504;13.438;2023-05-07T14:02:40;102014.00;;;23.60
71564;BMP180;59391;52.504;13.438;2023-05-07T14:05:06;102017.00;;;23.60
71564;BMP180;59391;52.504;13.438;2023-05-07T14:07:32;102013.00;;;23.50